createdAt,value
2023-03-22T00:01:58.336Z,40.90
2023-03-22T00:07:00.427Z,40.50
2023-03-22T00:12:02.388Z,41.70
2023-03-22T00:17:04.166Z,44.40
2023-03-22T00:22:06.310Z,43.90
2023-03-22T00:27:08.535Z,42.70
2023-03-22T00:32:10.410Z,46.30
2023-03-22T00:37:12.184Z,36.90
2023-03-22T00:42:14.382Z,40.20
2023-03-22T00:47:16.142Z,44.90
2023-03-22T00:52:17.920Z,44.30
2023-03-22T00:57:20.209Z,32.50
2023-03-22T01:02:29.579Z,45.30
2023-03-22T01:07:32.771Z,52.80
2023-03-22T01:12:34.535Z,43.60
2023-03-22T01:17:36.155Z,47.40
2023-03-22T01:22:39.279Z,53.50
2023-03-22T01:27:41.090Z,72.30
2023-03-22T01:32:42.860Z,124.60
2023-03-22T01:37:45.352Z,88.10
2023-03-22T01:42:47.342Z,70.50
2023-03-22T01:47:57.424Z,50.50
2023-03-22T01:53:04.511Z,49.10
2023-03-22T01:58:06.587Z,46.30
2023-03-22T02:03:09.904Z,58.20
2023-03-22T02:13:38.535Z,39.60
2023-03-22T02:18:55.568Z,41.90
2023-03-22T02:24:00.416Z,67.40
2023-03-22T02:29:32.598Z,44.50
2023-03-22T02:35:12.059Z,40.20
2023-03-22T02:40:24.735Z,138.00
2023-03-22T02:45:53.799Z,122.90
2023-03-22T02:51:05.198Z,112.60
2023-03-22T02:56:52.272Z,84.20
2023-03-22T03:01:59.779Z,59.40
2023-03-22T03:07:06.589Z,63.90
2023-03-22T03:12:23.977Z,71.00
2023-03-22T03:17:37.530Z,70.30
2023-03-22T03:23:04.490Z,56.40
2023-03-22T03:28:47.025Z,47.10
2023-03-22T03:34:21.370Z,45.80
2023-03-22T03:39:27.877Z,56.90
2023-03-22T03:44:32.289Z,69.00
2023-03-22T03:49:35.492Z,39.40
2023-03-22T03:54:37.272Z,34.90
2023-03-22T03:59:38.947Z,31.80
2023-03-22T04:04:40.769Z,45.60
2023-03-22T04:09:42.690Z,56.80
2023-03-22T04:14:44.481Z,33.90
2023-03-22T04:19:46.049Z,29.40
2023-03-22T04:24:49.759Z,36.30
2023-03-22T04:29:51.835Z,30.60
2023-03-22T04:34:53.608Z,34.90
2023-03-22T04:39:55.485Z,36.10
2023-03-22T04:44:57.467Z,30.90
2023-03-22T04:49:59.263Z,29.00
2023-03-22T04:55:01.025Z,31.70
2023-03-22T05:00:08.510Z,80.00
2023-03-22T05:05:11.022Z,60.50
2023-03-22T05:10:12.892Z,70.10
2023-03-22T05:15:15.003Z,41.50
2023-03-22T05:20:17.361Z,42.60
2023-03-22T05:25:19.339Z,51.90
2023-03-22T05:30:21.657Z,41.30
2023-03-22T05:35:24.072Z,39.10
2023-03-22T05:40:26.590Z,37.10
2023-03-22T05:45:28.803Z,35.00
2023-03-22T05:50:32.125Z,38.40
2023-03-22T05:55:35.111Z,40.00
2023-03-22T06:00:38.204Z,39.50
2023-03-22T06:05:40.606Z,29.30
2023-03-22T06:10:42.812Z,32.20
2023-03-22T06:15:46.202Z,23.10
2023-03-22T06:20:47.979Z,28.50
2023-03-22T06:25:49.864Z,31.20
2023-03-22T06:30:51.766Z,34.50
2023-03-22T06:35:53.656Z,35.20
2023-03-22T06:40:56.500Z,28.70
2023-03-22T06:45:58.625Z,28.60
2023-03-22T06:51:01.175Z,31.70
2023-03-22T06:56:03.506Z,29.60
2023-03-22T07:01:05.999Z,25.70
2023-03-22T07:06:08.870Z,29.60
2023-03-22T07:11:10.837Z,29.80
2023-03-22T07:16:12.947Z,30.10
2023-03-22T07:21:15.201Z,32.10
2023-03-22T07:26:16.974Z,31.00
2023-03-22T07:31:19.054Z,37.50
2023-03-22T07:36:23.597Z,39.90
2023-03-22T07:41:26.717Z,43.10
2023-03-22T07:46:28.409Z,57.30
2023-03-22T07:51:31.084Z,53.30
2023-03-22T07:56:32.957Z,34.60
2023-03-22T08:01:35.075Z,33.70
2023-03-22T08:06:37.845Z,37.10
2023-03-22T08:11:40.025Z,39.80
2023-03-22T08:16:43.817Z,36.10
2023-03-22T08:21:46.048Z,25.90
2023-03-22T08:26:50.592Z,31.40
2023-03-22T08:31:52.769Z,38.90
2023-03-22T08:36:55.651Z,42.60
2023-03-22T08:41:58.148Z,76.10
2023-03-22T08:47:01.663Z,45.60
2023-03-22T08:52:07.013Z,43.80
2023-03-22T08:57:11.659Z,41.00
2023-03-22T09:02:14.102Z,43.60
2023-03-22T09:07:17.151Z,38.50
2023-03-22T09:12:18.928Z,32.50
2023-03-22T09:17:22.452Z,42.40
2023-03-22T09:22:24.829Z,51.10
2023-03-22T09:27:27.527Z,52.20
2023-03-22T09:32:29.217Z,51.30
2023-03-22T09:37:31.195Z,48.00
2023-03-22T09:42:46.268Z,59.30
2023-03-22T09:47:52.356Z,61.30
2023-03-22T09:52:54.750Z,54.60
2023-03-22T09:58:07.367Z,56.90
2023-03-22T10:03:21.010Z,51.50
2023-03-22T10:08:41.122Z,56.60
2023-03-22T10:14:20.773Z,55.10
2023-03-22T10:19:29.316Z,49.50
2023-03-22T10:24:33.541Z,50.00
2023-03-22T10:29:41.464Z,58.80
2023-03-22T10:34:44.053Z,58.20
2023-03-22T10:39:52.340Z,52.20
2023-03-22T10:45:05.025Z,61.20
2023-03-22T10:50:39.066Z,48.70
2023-03-22T10:55:43.935Z,55.40
2023-03-22T11:01:11.320Z,46.10
2023-03-22T11:06:20.522Z,51.00
2023-03-22T11:11:27.306Z,57.10
2023-03-22T11:16:31.381Z,53.30
2023-03-22T11:21:34.038Z,56.40
2023-03-22T11:26:40.705Z,49.10
2023-03-22T11:31:54.230Z,56.60
2023-03-22T11:37:01.277Z,45.60
2023-03-22T11:42:06.240Z,59.90
2023-03-22T11:47:11.781Z,47.90
2023-03-22T11:52:26.249Z,54.40
2023-03-22T11:57:35.604Z,50.70
2023-03-22T12:02:48.349Z,53.70
2023-03-22T12:08:13.747Z,52.90
2023-03-22T12:13:43.709Z,42.50
2023-03-22T12:18:51.104Z,46.10
2023-03-22T12:23:58.514Z,43.80
2023-03-22T12:29:15.746Z,45.20
2023-03-22T12:34:21.712Z,42.70
2023-03-22T12:39:34.665Z,48.60
2023-03-22T12:44:44.927Z,46.40
2023-03-22T12:50:11.695Z,49.50
2023-03-22T12:55:35.802Z,44.80
2023-03-22T13:00:47.533Z,47.20
2023-03-22T13:06:01.459Z,37.00
2023-03-22T13:11:04.832Z,39.90
2023-03-22T13:16:10.354Z,38.20
2023-03-22T13:21:14.197Z,38.70
2023-03-22T13:26:17.264Z,45.20
2023-03-22T13:31:41.502Z,41.20
2023-03-22T13:36:55.931Z,46.50
2023-03-22T13:42:36.306Z,51.90
2023-03-22T13:47:46.414Z,52.90
2023-03-22T13:52:59.312Z,49.90
2023-03-22T13:58:02.518Z,50.60
2023-03-22T14:08:25.236Z,44.70
2023-03-22T14:13:42.143Z,46.40
2023-03-22T14:18:47.311Z,40.80
